createdAt,value
2018-05-26T00:01:39.722Z,20.00
2018-05-26T00:04:07.248Z,19.90
2018-05-26T00:06:34.757Z,19.90
2018-05-26T00:09:03.154Z,19.80
2018-05-26T00:11:30.668Z,19.80
2018-05-26T00:13:58.252Z,19.80
2018-05-26T00:16:25.815Z,19.70
2018-05-26T00:18:54.089Z,19.60
2018-05-26T00:21:21.653Z,19.50
2018-05-26T00:23:49.956Z,19.50
2018-05-26T00:26:17.460Z,19.40
2018-05-26T00:28:52.944Z,19.40
2018-05-26T00:31:20.495Z,19.40
2018-05-26T00:33:48.025Z,19.40
2018-05-26T00:36:16.443Z,19.30
2018-05-26T00:38:44.078Z,19.30
2018-05-26T00:41:12.381Z,19.30
2018-05-26T00:43:39.939Z,19.30
2018-05-26T00:46:07.441Z,19.20
2018-05-26T00:48:37.416Z,19.10
2018-05-26T00:51:04.964Z,19.10
2018-05-26T00:53:32.445Z,19.20
2018-05-26T00:56:00.073Z,19.10
2018-05-26T00:58:27.582Z,19.20
2018-05-26T01:00:55.174Z,19.20
2018-05-26T01:03:23.560Z,19.20
2018-05-26T01:05:52.244Z,19.20
2018-05-26T01:08:20.512Z,19.20
2018-05-26T01:10:48.818Z,19.20
2018-05-26T01:13:16.793Z,19.20
2018-05-26T01:15:44.308Z,19.30
2018-05-26T01:18:12.578Z,19.20
2018-05-26T01:20:40.084Z,19.20
2018-05-26T01:23:07.714Z,19.10
2018-05-26T01:25:36.530Z,19.10
2018-05-26T01:28:04.076Z,19.10
2018-05-26T01:30:31.744Z,19.00
2018-05-26T01:32:59.268Z,19.10
2018-05-26T01:35:26.833Z,19.00
2018-05-26T01:37:54.392Z,18.90
2018-05-26T01:40:22.684Z,18.80
2018-05-26T01:42:50.181Z,18.80
2018-05-26T01:45:17.694Z,18.80
2018-05-26T01:47:45.989Z,18.90
2018-05-26T01:50:13.480Z,18.90
2018-05-26T01:52:40.976Z,18.90
2018-05-26T01:55:09.357Z,18.80
2018-05-26T01:57:37.628Z,18.80
2018-05-26T02:00:06.896Z,18.80
2018-05-26T02:02:34.382Z,18.70
2018-05-26T02:05:02.674Z,18.70
2018-05-26T02:07:30.186Z,18.70
2018-05-26T02:09:58.110Z,18.70
2018-05-26T02:12:25.636Z,18.60
2018-05-26T02:14:53.968Z,18.50
2018-05-26T02:17:21.467Z,18.50
2018-05-26T02:19:49.020Z,18.40
2018-05-26T02:22:16.585Z,18.30
2018-05-26T02:24:44.053Z,18.20
2018-05-26T02:27:12.339Z,18.20
2018-05-26T02:29:39.877Z,18.20
2018-05-26T02:32:08.178Z,18.20
2018-05-26T02:34:35.733Z,18.20
2018-05-26T02:37:04.128Z,18.10
2018-05-26T02:39:31.628Z,18.10
2018-05-26T02:42:00.673Z,18.10
2018-05-26T02:44:28.175Z,18.10
2018-05-26T02:46:55.769Z,18.10
2018-05-26T02:49:23.335Z,18.10
2018-05-26T02:51:51.640Z,18.00
2018-05-26T02:54:19.736Z,18.00
2018-05-26T02:56:47.365Z,18.00
2018-05-26T02:59:14.907Z,18.00
2018-05-26T03:01:42.632Z,18.00
2018-05-26T03:04:09.654Z,18.00
2018-05-26T03:06:42.768Z,18.00
2018-05-26T03:09:15.939Z,18.00
2018-05-26T03:11:49.127Z,17.90
2018-05-26T03:14:22.370Z,17.90
2018-05-26T03:16:51.095Z,17.90
2018-05-26T03:19:18.579Z,17.90
2018-05-26T03:21:46.127Z,17.90
2018-05-26T03:24:13.735Z,17.90
2018-05-26T03:26:41.971Z,17.90
2018-05-26T03:29:09.481Z,17.90
2018-05-26T03:31:37.004Z,17.90
2018-05-26T03:34:05.292Z,17.70
2018-05-26T03:36:33.558Z,17.70
2018-05-26T03:39:01.831Z,17.60
2018-05-26T03:41:30.108Z,17.50
2018-05-26T03:43:59.100Z,17.50
2018-05-26T03:46:26.597Z,17.50
2018-05-26T03:48:54.142Z,17.50
2018-05-26T03:51:22.424Z,17.50
2018-05-26T03:53:49.953Z,17.50
2018-05-26T03:56:31.045Z,17.60
2018-05-26T03:59:11.258Z,17.60
2018-05-26T04:01:38.748Z,17.60
2018-05-26T04:04:07.010Z,17.70
2018-05-26T04:06:35.602Z,17.70
2018-05-26T04:09:05.451Z,17.80
2018-05-26T04:11:32.985Z,17.80
2018-05-26T04:14:01.270Z,17.90
2018-05-26T04:16:28.780Z,17.90
2018-05-26T04:18:56.382Z,18.00
2018-05-26T04:21:24.693Z,18.20
2018-05-26T04:23:52.227Z,18.20
2018-05-26T04:26:20.506Z,18.50
2018-05-26T04:28:48.048Z,18.50
2018-05-26T04:31:16.362Z,19.00
2018-05-26T04:36:18.820Z,19.30
2018-05-26T04:38:47.116Z,19.60
2018-05-26T04:41:15.392Z,19.80
2018-05-26T04:43:42.917Z,19.80
2018-05-26T04:46:11.265Z,20.10
2018-05-26T04:48:38.876Z,20.10
2018-05-26T04:51:07.161Z,20.60
2018-05-26T04:53:34.703Z,20.50
2018-05-26T04:56:02.978Z,20.70
2018-05-26T04:58:31.317Z,20.80
2018-05-26T05:00:58.823Z,20.80
2018-05-26T05:03:27.176Z,21.10
2018-05-26T05:05:55.474Z,21.20
2018-05-26T05:08:23.020Z,21.20
2018-05-26T05:10:51.312Z,21.50
2018-05-26T05:13:20.045Z,21.50
2018-05-26T05:15:48.264Z,21.60
2018-05-26T05:18:16.593Z,22.00
2018-05-26T05:20:44.109Z,22.00
2018-05-26T05:23:11.637Z,22.10
2018-05-26T05:25:39.221Z,22.30
2018-05-26T05:28:06.857Z,22.40
2018-05-26T05:30:34.339Z,22.60
2018-05-26T05:33:01.845Z,22.90
2018-05-26T05:35:29.348Z,23.10
2018-05-26T05:37:57.642Z,23.60
2018-05-26T05:40:25.224Z,23.50
2018-05-26T05:42:52.733Z,23.70
2018-05-26T05:47:55.076Z,24.10
2018-05-26T05:50:22.599Z,24.30
2018-05-26T05:52:50.089Z,24.40
2018-05-26T05:55:17.620Z,24.70
2018-05-26T05:57:45.228Z,24.70
2018-05-26T06:00:12.727Z,24.90
2018-05-26T06:02:40.943Z,24.90
2018-05-26T06:05:08.501Z,24.90
2018-05-26T06:07:35.989Z,25.10
2018-05-26T06:10:03.855Z,25.30
2018-05-26T06:12:31.344Z,25.40
2018-05-26T06:14:58.899Z,25.60
2018-05-26T06:17:26.459Z,25.50
2018-05-26T06:19:53.956Z,25.40
2018-05-26T06:22:22.259Z,25.40
2018-05-26T06:24:49.840Z,25.50
2018-05-26T06:27:18.219Z,25.70
2018-05-26T06:29:46.629Z,25.60
2018-05-26T06:32:14.205Z,25.60
2018-05-26T06:34:41.824Z,25.80
2018-05-26T06:37:09.335Z,25.80
2018-05-26T06:39:36.841Z,25.90
2018-05-26T06:42:04.332Z,26.10
2018-05-26T06:44:31.877Z,26.50
2018-05-26T06:46:59.403Z,26.70
2018-05-26T06:49:27.684Z,26.70
2018-05-26T06:51:55.211Z,26.70
2018-05-26T06:54:22.709Z,27.00
2018-05-26T06:56:50.200Z,27.60
2018-05-26T06:59:18.545Z,27.90
2018-05-26T07:01:46.069Z,28.10
2018-05-26T07:04:13.600Z,28.00
2018-05-26T07:06:42.083Z,27.70
2018-05-26T07:09:09.611Z,27.30
2018-05-26T07:11:37.120Z,26.90
2018-05-26T07:14:04.720Z,26.80
2018-05-26T07:16:32.214Z,27.10
2018-05-26T07:18:59.742Z,27.40
2018-05-26T07:21:27.271Z,27.30
2018-05-26T07:23:54.776Z,27.40
2018-05-26T07:26:22.388Z,27.50
2018-05-26T07:28:50.678Z,27.40
2018-05-26T07:31:18.176Z,27.40
2018-05-26T07:33:45.715Z,27.30
2018-05-26T07:36:13.209Z,27.30
2018-05-26T07:38:40.709Z,27.30
2018-05-26T07:41:08.283Z,27.40
2018-05-26T07:43:35.825Z,27.30
2018-05-26T07:46:04.239Z,27.30
2018-05-26T07:48:31.746Z,27.30
2018-05-26T07:51:00.013Z,27.30
2018-05-26T07:53:27.665Z,27.30
2018-05-26T07:55:55.197Z,27.50
2018-05-26T07:58:22.689Z,27.40
2018-05-26T08:00:50.225Z,27.50
2018-05-26T08:03:17.768Z,27.70
2018-05-26T08:05:45.305Z,27.80
2018-05-26T08:08:18.738Z,28.00
2018-05-26T08:10:46.243Z,28.00
2018-05-26T08:13:13.782Z,28.00
2018-05-26T08:15:42.062Z,28.30
2018-05-26T08:18:10.327Z,28.30
2018-05-26T08:20:37.829Z,28.30
2018-05-26T08:23:05.355Z,28.20
2018-05-26T08:25:33.613Z,28.50
2018-05-26T08:28:01.886Z,28.40
2018-05-26T08:30:29.373Z,28.40
2018-05-26T08:32:56.886Z,28.50
2018-05-26T08:35:24.436Z,28.60
2018-05-26T08:37:51.935Z,28.80
2018-05-26T08:40:20.194Z,28.40
2018-05-26T08:42:47.684Z,28.40
2018-05-26T08:45:15.229Z,28.30
2018-05-26T08:47:43.501Z,28.20
2018-05-26T08:50:11.769Z,28.30
2018-05-26T08:52:40.018Z,28.20
2018-05-26T08:55:07.718Z,28.20
2018-05-26T08:57:45.890Z,28.40
2018-05-26T09:00:13.789Z,28.30
2018-05-26T09:02:42.059Z,28.40
2018-05-26T09:05:10.321Z,28.30
2018-05-26T09:07:37.859Z,28.30
2018-05-26T09:10:05.461Z,28.10
2018-05-26T09:12:33.005Z,27.60
2018-05-26T09:15:01.391Z,27.90
2018-05-26T09:17:29.746Z,27.80
2018-05-26T09:19:57.629Z,27.80
2018-05-26T09:22:25.950Z,27.60
2018-05-26T09:24:53.522Z,27.60
2018-05-26T09:27:21.716Z,27.70
2018-05-26T09:29:49.284Z,27.70
2018-05-26T09:32:16.807Z,28.10
2018-05-26T09:34:44.622Z,28.20
2018-05-26T09:37:12.889Z,28.50
2018-05-26T09:39:41.177Z,28.40
2018-05-26T09:42:09.552Z,28.20
2018-05-26T09:44:37.816Z,28.20
2018-05-26T09:47:05.407Z,28.20
2018-05-26T09:49:33.251Z,28.40
2018-05-26T09:52:01.582Z,28.70
2018-05-26T09:54:29.335Z,28.70
2018-05-26T09:56:56.985Z,28.50
2018-05-26T09:59:24.525Z,29.20
2018-05-26T10:01:52.787Z,29.10
2018-05-26T10:04:21.179Z,29.30
2018-05-26T10:06:48.652Z,29.30
2018-05-26T10:09:17.065Z,29.10
2018-05-26T10:11:44.761Z,29.30
2018-05-26T10:14:13.066Z,29.30
2018-05-26T10:16:41.065Z,29.30
2018-05-26T10:19:08.564Z,29.40
2018-05-26T10:21:37.133Z,29.80
2018-05-26T10:24:05.432Z,29.90
2018-05-26T10:26:32.936Z,29.80
2018-05-26T10:29:00.594Z,29.40
2018-05-26T10:31:28.198Z,28.90
2018-05-26T10:33:56.568Z,29.30
2018-05-26T10:36:24.834Z,29.50
2018-05-26T10:38:52.340Z,29.50
2018-05-26T10:41:21.300Z,29.50
2018-05-26T10:43:49.596Z,29.50
2018-05-26T10:46:30.957Z,29.40
2018-05-26T10:48:59.199Z,29.10
2018-05-26T10:51:26.732Z,29.00
2018-05-26T10:53:54.221Z,29.30
2018-05-26T10:56:21.800Z,29.20
2018-05-26T10:58:50.140Z,29.20
2018-05-26T11:01:17.665Z,29.20
2018-05-26T11:03:45.157Z,29.00
2018-05-26T11:06:12.755Z,29.10
2018-05-26T11:08:41.096Z,29.20
2018-05-26T11:11:08.593Z,29.20
2018-05-26T11:13:36.970Z,29.00
2018-05-26T11:16:05.275Z,28.90
2018-05-26T11:18:32.795Z,28.80
2018-05-26T11:21:01.077Z,28.70
2018-05-26T11:23:29.426Z,28.50
2018-05-26T11:25:56.915Z,28.50
2018-05-26T11:28:25.177Z,28.90
2018-05-26T11:30:53.710Z,29.10
2018-05-26T11:33:21.933Z,29.40
2018-05-26T11:35:49.453Z,29.30
2018-05-26T11:38:16.925Z,29.70
2018-05-26T11:40:44.441Z,29.60
2018-05-26T11:43:12.065Z,29.30
2018-05-26T11:45:39.589Z,29.10
2018-05-26T11:48:07.099Z,29.00
2018-05-26T11:50:35.341Z,28.70
2018-05-26T11:53:02.865Z,28.60
2018-05-26T11:55:30.366Z,28.40
2018-05-26T11:57:57.952Z,28.30
2018-05-26T12:00:26.217Z,28.20
2018-05-26T12:02:54.590Z,28.40
2018-05-26T12:05:22.835Z,28.80
2018-05-26T12:07:50.381Z,28.80
2018-05-26T12:10:17.989Z,29.00
2018-05-26T12:12:46.299Z,28.60
2018-05-26T12:15:13.827Z,28.60
2018-05-26T12:17:42.103Z,28.40
2018-05-26T12:20:10.371Z,28.40
2018-05-26T12:22:39.069Z,28.40
2018-05-26T12:25:07.496Z,28.50
2018-05-26T12:27:34.993Z,28.50
2018-05-26T12:30:03.303Z,28.50
2018-05-26T12:32:30.845Z,28.50
2018-05-26T12:34:58.343Z,28.50
2018-05-26T12:37:25.959Z,28.50
2018-05-26T12:39:53.451Z,28.50
2018-05-26T12:42:20.964Z,28.40
2018-05-26T12:44:49.236Z,28.20
2018-05-26T12:47:17.524Z,28.20
2018-05-26T12:49:45.038Z,28.20
2018-05-26T12:52:13.668Z,28.30
2018-05-26T12:54:41.153Z,28.30
2018-05-26T12:57:08.665Z,28.30
2018-05-26T12:59:36.923Z,28.40
2018-05-26T13:02:04.419Z,28.40
2018-05-26T13:04:31.927Z,28.30
2018-05-26T13:06:59.428Z,28.40
2018-05-26T13:09:27.053Z,28.40
2018-05-26T13:11:54.661Z,28.30
2018-05-26T13:14:22.190Z,28.40
2018-05-26T13:16:50.469Z,28.50
2018-05-26T13:19:18.117Z,28.40
2018-05-26T13:21:46.539Z,28.50
2018-05-26T13:24:14.097Z,28.50
2018-05-26T13:26:41.615Z,28.80
2018-05-26T13:29:09.185Z,28.90
2018-05-26T13:31:37.475Z,28.80
2018-05-26T13:34:05.737Z,28.60
2018-05-26T13:36:34.218Z,28.60
2018-05-26T13:39:02.605Z,28.60
2018-05-26T13:41:30.118Z,28.60
2018-05-26T13:43:57.621Z,28.60
2018-05-26T13:46:25.166Z,28.50
2018-05-26T13:48:53.451Z,28.60
2018-05-26T13:51:20.969Z,28.60
2018-05-26T13:53:48.475Z,28.60
2018-05-26T13:56:16.314Z,28.70
2018-05-26T13:58:43.757Z,28.60
2018-05-26T14:01:11.271Z,28.70
2018-05-26T14:03:38.809Z,28.60
2018-05-26T14:06:06.317Z,28.70
2018-05-26T14:08:33.845Z,28.70
2018-05-26T14:11:01.721Z,28.80
2018-05-26T14:13:29.937Z,28.70
2018-05-26T14:15:58.465Z,28.70
2018-05-26T14:18:25.966Z,28.60
2018-05-26T14:20:54.245Z,28.70
2018-05-26T14:23:22.569Z,28.70
2018-05-26T14:25:50.085Z,28.60
2018-05-26T14:28:17.587Z,28.60
2018-05-26T14:30:45.221Z,28.70
2018-05-26T14:33:13.521Z,28.60
2018-05-26T14:35:41.033Z,28.60
2018-05-26T14:38:08.553Z,28.60
2018-05-26T14:40:37.299Z,28.60
2018-05-26T14:43:05.804Z,28.50
2018-05-26T14:45:33.311Z,28.50
2018-05-26T14:48:00.837Z,28.50
2018-05-26T14:50:28.332Z,28.40
2018-05-26T14:52:56.621Z,28.30
2018-05-26T14:55:24.900Z,28.20
2018-05-26T14:57:53.161Z,28.20
2018-05-26T15:00:21.541Z,28.10
2018-05-26T15:02:49.805Z,28.10
2018-05-26T15:05:17.389Z,28.10
2018-05-26T15:07:45.720Z,28.20
2018-05-26T15:10:13.229Z,28.20
2018-05-26T15:12:40.813Z,28.30
2018-05-26T15:15:08.249Z,28.30
2018-05-26T15:17:35.759Z,28.40
2018-05-26T15:20:03.240Z,28.60
2018-05-26T15:22:31.557Z,28.70
2018-05-26T15:24:59.080Z,28.60
2018-05-26T15:27:27.345Z,28.60
2018-05-26T15:29:55.621Z,28.50
2018-05-26T15:32:24.004Z,28.60
2018-05-26T15:34:52.293Z,28.60
2018-05-26T15:37:20.568Z,28.70
2018-05-26T15:39:48.073Z,28.60
2018-05-26T15:42:15.775Z,28.80
2018-05-26T15:44:44.463Z,28.90
2018-05-26T15:47:12.737Z,28.90
2018-05-26T15:49:40.995Z,28.80
2018-05-26T15:52:09.188Z,28.80
2018-05-26T15:54:37.444Z,28.80
2018-05-26T15:57:04.949Z,28.80
2018-05-26T15:59:32.464Z,28.70
2018-05-26T16:01:59.987Z,28.60
2018-05-26T16:04:27.484Z,28.60
2018-05-26T16:06:55.147Z,28.50
2018-05-26T16:09:23.453Z,28.40
2018-05-26T16:11:51.022Z,28.30
2018-05-26T16:14:18.555Z,28.30
2018-05-26T16:16:46.811Z,28.30
2018-05-26T16:19:15.093Z,28.20
2018-05-26T16:21:43.932Z,28.30
2018-05-26T16:24:11.489Z,28.30
2018-05-26T16:26:38.979Z,28.30
2018-05-26T16:29:06.875Z,28.30
2018-05-26T16:31:35.164Z,28.30
2018-05-26T16:34:02.657Z,28.30
2018-05-26T16:36:30.188Z,28.20
2018-05-26T16:38:57.713Z,28.10
2018-05-26T16:41:26.299Z,28.10
2018-05-26T16:43:54.689Z,28.10
2018-05-26T16:46:22.235Z,28.10
2018-05-26T16:48:50.500Z,28.00
2018-05-26T16:51:18.101Z,28.00
2018-05-26T16:53:46.488Z,28.00
2018-05-26T16:56:14.064Z,28.00
2018-05-26T16:58:41.633Z,28.00
2018-05-26T17:01:09.152Z,28.00
2018-05-26T17:03:36.665Z,28.00
2018-05-26T17:06:04.156Z,27.90
2018-05-26T17:08:32.018Z,27.90
2018-05-26T17:10:59.652Z,27.80
2018-05-26T17:13:27.968Z,27.80
2018-05-26T17:15:55.640Z,27.80
2018-05-26T17:18:23.150Z,27.70
2018-05-26T17:20:51.442Z,27.70
2018-05-26T17:23:19.983Z,27.70
2018-05-26T17:25:48.327Z,27.70
2018-05-26T17:28:15.885Z,27.70
2018-05-26T17:30:43.373Z,27.70
2018-05-26T17:33:10.909Z,27.60
2018-05-26T17:35:38.460Z,27.60
2018-05-26T17:38:05.957Z,27.50
2018-05-26T17:40:33.524Z,27.50
2018-05-26T17:43:01.084Z,27.50
2018-05-26T17:45:28.616Z,27.50
2018-05-26T17:47:56.164Z,27.50
2018-05-26T17:50:23.666Z,27.50
2018-05-26T17:52:52.172Z,27.40
2018-05-26T17:55:19.705Z,27.40
2018-05-26T17:57:47.254Z,27.30
2018-05-26T18:00:14.763Z,27.30
2018-05-26T18:02:42.295Z,27.30
2018-05-26T18:05:10.656Z,27.20
2018-05-26T18:07:38.240Z,27.20
2018-05-26T18:10:05.764Z,27.10
2018-05-26T18:12:33.298Z,27.10
2018-05-26T18:15:00.858Z,27.10
2018-05-26T18:17:29.504Z,27.00
2018-05-26T18:19:57.009Z,27.00
2018-05-26T18:22:24.538Z,27.00
2018-05-26T18:24:52.037Z,27.00
2018-05-26T18:27:19.612Z,27.00
2018-05-26T18:29:47.956Z,26.80
2018-05-26T18:32:15.608Z,26.80
2018-05-26T18:34:43.136Z,26.80
2018-05-26T18:37:10.739Z,26.80
2018-05-26T18:39:38.248Z,26.70
2018-05-26T18:42:06.522Z,26.70
2018-05-26T18:44:34.044Z,26.70
2018-05-26T18:47:01.652Z,26.70
2018-05-26T18:49:29.188Z,26.70
2018-05-26T18:51:56.680Z,26.60
2018-05-26T18:54:24.955Z,26.50
2018-05-26T18:56:52.500Z,26.50
2018-05-26T18:59:19.984Z,26.40
2018-05-26T19:01:47.620Z,26.30
2018-05-26T19:04:15.130Z,26.20
2018-05-26T19:06:42.616Z,26.20
2018-05-26T19:09:10.145Z,26.10
2018-05-26T19:11:37.703Z,26.00
2018-05-26T19:14:05.188Z,26.00
2018-05-26T19:16:33.041Z,26.00
2018-05-26T19:19:01.457Z,25.80
2018-05-26T19:21:28.963Z,25.80
2018-05-26T19:23:57.249Z,25.60
2018-05-26T19:26:25.683Z,25.60
2018-05-26T19:28:53.321Z,25.50
2018-05-26T19:31:20.873Z,25.40
2018-05-26T19:33:48.405Z,25.40
2018-05-26T19:36:16.709Z,25.30
2018-05-26T19:38:44.255Z,25.20
2018-05-26T19:41:11.759Z,25.20
2018-05-26T19:43:39.243Z,25.20
2018-05-26T19:46:07.532Z,25.10
2018-05-26T19:48:35.939Z,25.00
2018-05-26T19:51:03.915Z,25.00
2018-05-26T19:53:31.575Z,24.90
2018-05-26T19:55:59.205Z,24.90
2018-05-26T19:58:27.545Z,24.70
2018-05-26T20:00:55.092Z,24.70
2018-05-26T20:03:22.615Z,24.60
2018-05-26T20:05:50.153Z,24.60
2018-05-26T20:08:18.665Z,24.40
2018-05-26T20:10:46.883Z,24.40
2018-05-26T20:13:14.412Z,24.40
2018-05-26T20:15:42.174Z,24.40
2018-05-26T20:18:09.794Z,24.40
2018-05-26T20:20:38.179Z,24.30
2018-05-26T20:23:06.474Z,24.30
2018-05-26T20:25:33.984Z,24.30
2018-05-26T20:28:01.504Z,24.20
2018-05-26T20:30:29.021Z,24.20
2018-05-26T20:32:57.232Z,24.00
2018-05-26T20:35:24.750Z,24.00
2018-05-26T20:37:52.963Z,24.00
2018-05-26T20:40:20.518Z,24.00
2018-05-26T20:42:48.040Z,24.00
2018-05-26T20:45:16.318Z,23.90
2018-05-26T20:47:44.584Z,23.90
2018-05-26T20:50:13.678Z,23.80
2018-05-26T20:52:41.947Z,23.70
2018-05-26T20:55:10.248Z,23.60
2018-05-26T20:57:37.804Z,23.60
2018-05-26T21:00:06.068Z,23.60
2018-05-26T21:02:34.344Z,23.50
2018-05-26T21:05:02.600Z,23.60
2018-05-26T21:07:30.169Z,23.60
2018-05-26T21:09:58.447Z,23.40
2018-05-26T21:12:26.725Z,23.50
2018-05-26T21:14:55.000Z,23.40
2018-05-26T21:17:23.332Z,23.40
2018-05-26T21:19:50.872Z,23.40
2018-05-26T21:22:18.404Z,23.40
2018-05-26T21:24:46.639Z,23.30
2018-05-26T21:27:14.172Z,23.30
2018-05-26T21:29:41.686Z,23.30
2018-05-26T21:32:10.400Z,23.20
2018-05-26T21:34:37.895Z,23.20
2018-05-26T21:37:05.388Z,23.20
2018-05-26T21:39:33.688Z,23.20
2018-05-26T21:42:01.185Z,23.20
2018-05-26T21:44:28.792Z,23.10
2018-05-26T21:46:56.478Z,23.10
2018-05-26T21:49:24.730Z,23.00
2018-05-26T21:51:52.990Z,23.10
2018-05-26T21:54:21.356Z,23.00
2018-05-26T21:56:49.626Z,23.00
2018-05-26T21:59:17.128Z,23.00
2018-05-26T22:01:44.642Z,23.00
2018-05-26T22:04:12.875Z,23.00
2018-05-26T22:06:40.372Z,22.90
2018-05-26T22:09:07.855Z,22.90
2018-05-26T22:11:35.429Z,22.80
2018-05-26T22:14:12.838Z,22.80
2018-05-26T22:16:40.346Z,22.70
2018-05-26T22:19:08.638Z,22.60
2018-05-26T22:21:36.920Z,22.60
2018-05-26T22:24:05.560Z,22.50
2018-05-26T22:26:43.138Z,22.50
2018-05-26T22:29:10.692Z,22.50
2018-05-26T22:31:38.914Z,22.40
2018-05-26T22:34:07.193Z,22.40
2018-05-26T22:36:36.202Z,22.30
2018-05-26T22:39:04.456Z,22.30
2018-05-26T22:41:33.889Z,22.30
2018-05-26T22:44:01.466Z,22.20
2018-05-26T22:46:29.022Z,22.20
2018-05-26T22:48:56.538Z,22.10
2018-05-26T22:51:24.779Z,22.20
2018-05-26T22:53:53.832Z,22.10
2018-05-26T22:56:21.364Z,22.10
2018-05-26T22:58:48.892Z,22.10
2018-05-26T23:01:18.000Z,22.10
2018-05-26T23:03:45.570Z,22.10
2018-05-26T23:06:13.921Z,22.10
2018-05-26T23:08:41.470Z,22.10
2018-05-26T23:11:08.975Z,22.20
2018-05-26T23:13:36.504Z,22.10
2018-05-26T23:16:04.092Z,22.10
2018-05-26T23:18:32.349Z,22.10
2018-05-26T23:21:00.709Z,22.00
2018-05-26T23:23:28.232Z,22.00
2018-05-26T23:25:55.754Z,22.10
2018-05-26T23:28:24.143Z,22.10
2018-05-26T23:31:00.652Z,22.10
2018-05-26T23:33:28.129Z,22.00
2018-05-26T23:35:55.621Z,22.00
2018-05-26T23:38:23.910Z,22.00
2018-05-26T23:40:51.386Z,21.90
2018-05-26T23:43:19.048Z,22.00
2018-05-26T23:45:46.571Z,22.00
2018-05-26T23:48:14.840Z,22.00
2018-05-26T23:50:43.140Z,21.90
2018-05-26T23:53:10.664Z,21.90
2018-05-26T23:55:38.260Z,21.90
2018-05-26T23:58:05.794Z,21.90
